sensor_id;sensor_type;location;lat;lon;timestamp;P1;durP1;ratioP1;P2;durP2;ratioP2
57463;SDS011;43309;44.418;26.122;2022-07-29T00:01:33;5.70;;;5.20;;
57463;SDS011;43309;44.418;26.122;2022-07-29T00:04:00;6.50;;;5.40;;
57463;SDS011;43309;44.418;26.122;2022-07-29T00:06:28;8.00;;;5.60;;
57463;SDS011;43309;44.418;26.122;2022-07-29T00:08:55;7.10;;;6.00;;
57463;SDS011;43309;44.418;26.122;2022-07-29T00:11:22;6.90;;;5.70;;
57463;SDS011;43309;44.418;26.122;2022-07-29T00:13:49;6.00;;;5.40;;
57463;SDS011;43309;44.418;26.122;2022-07-29T00:16:16;7.60;;;5.70;;
57463;SDS011;43309;44.418;26.122;2022-07-29T00:18:43;6.30;;;5.40;;
57463;SDS011;43309;44.418;26.122;2022-07-29T00:21:10;5.80;;;5.20;;
57463;SDS011;43309;44.418;26.122;2022-07-29T00:23:37;6.50;;;5.80;;
57463;SDS011;43309;44.418;26.122;2022-07-29T00:26:04;6.70;;;5.60;;
57463;SDS011;43309;44.418;26.122;2022-07-29T00:28:31;6.60;;;5.80;;
57463;SDS011;43309;44.418;26.122;2022-07-29T00:30:59;6.00;;;5.40;;
57463;SDS011;43309;44.418;26.122;2022-07-29T00:33:26;5.60;;;5.10;;
57463;SDS011;43309;44.418;26.122;2022-07-29T00:35:53;6.80;;;5.60;;
57463;SDS011;43309;44.418;26.122;2022-07-29T00:38:20;8.20;;;6.40;;
57463;SDS011;43309;44.418;26.122;2022-07-29T00:40:47;7.70;;;5.40;;
57463;SDS011;43309;44.418;26.122;2022-07-29T00:43:14;7.00;;;5.60;;
57463;SDS011;43309;44.418;26.122;2022-07-29T00:45:42;7.30;;;5.20;;
57463;SDS011;43309;44.418;26.122;2022-07-29T00:48:09;6.30;;;5.30;;
57463;SDS011;43309;44.418;26.122;2022-07-29T00:50:37;6.30;;;5.70;;
57463;SDS011;43309;44.418;26.122;2022-07-29T00:53:05;7.40;;;5.80;;
57463;SDS011;43309;44.418;26.122;2022-07-29T00:55:33;7.50;;;5.70;;
57463;SDS011;43309;44.418;26.122;2022-07-29T00:58:01;6.60;;;6.00;;
57463;SDS011;43309;44.418;26.122;2022-07-29T01:00:28;8.70;;;6.00;;
57463;SDS011;43309;44.418;26.122;2022-07-29T01:02:56;6.00;;;5.50;;
57463;SDS011;43309;44.418;26.122;2022-07-29T01:05:24;6.90;;;5.90;;
57463;SDS011;43309;44.418;26.122;2022-07-29T01:07:54;6.30;;;5.70;;
57463;SDS011;43309;44.418;26.122;2022-07-29T01:10:21;6.70;;;6.00;;
57463;SDS011;43309;44.418;26.122;2022-07-29T01:12:50;9.00;;;6.30;;
57463;SDS011;43309;44.418;26.122;2022-07-29T01:15:18;7.60;;;5.90;;
57463;SDS011;43309;44.418;26.122;2022-07-29T01:17:50;6.80;;;6.00;;
57463;SDS011;43309;44.418;26.122;2022-07-29T01:34:52;8.80;;;7.20;;
57463;SDS011;43309;44.418;26.122;2022-07-29T01:43:12;11.20;;;7.00;;
57463;SDS011;43309;44.418;26.122;2022-07-29T01:46:01;9.30;;;7.00;;
57463;SDS011;43309;44.418;26.122;2022-07-29T01:51:25;8.60;;;7.70;;
57463;SDS011;43309;44.418;26.122;2022-07-29T01:54:02;10.00;;;7.60;;
57463;SDS011;43309;44.418;26.122;2022-07-29T01:56:34;8.30;;;7.30;;
57463;SDS011;43309;44.418;26.122;2022-07-29T01:59:03;10.40;;;7.20;;
57463;SDS011;43309;44.418;26.122;2022-07-29T02:01:32;8.50;;;7.50;;
57463;SDS011;43309;44.418;26.122;2022-07-29T02:04:02;10.10;;;7.20;;
57463;SDS011;43309;44.418;26.122;2022-07-29T02:06:30;10.80;;;7.40;;
57463;SDS011;43309;44.418;26.122;2022-07-29T02:08:59;7.80;;;7.00;;
57463;SDS011;43309;44.418;26.122;2022-07-29T02:11:28;7.90;;;7.20;;
57463;SDS011;43309;44.418;26.122;2022-07-29T02:13:56;8.30;;;7.10;;
57463;SDS011;43309;44.418;26.122;2022-07-29T02:16:24;8.30;;;6.70;;
57463;SDS011;43309;44.418;26.122;2022-07-29T02:18:54;10.40;;;6.60;;
57463;SDS011;43309;44.418;26.122;2022-07-29T02:21:24;9.00;;;6.60;;
57463;SDS011;43309;44.418;26.122;2022-07-29T02:23:52;8.40;;;7.00;;
57463;SDS011;43309;44.418;26.122;2022-07-29T02:26:20;8.60;;;7.40;;
57463;SDS011;43309;44.418;26.122;2022-07-29T02:28:48;10.10;;;7.10;;
57463;SDS011;43309;44.418;26.122;2022-07-29T02:31:17;10.70;;;7.80;;
57463;SDS011;43309;44.418;26.122;2022-07-29T02:33:47;8.50;;;6.90;;
57463;SDS011;43309;44.418;26.122;2022-07-29T02:36:15;10.00;;;7.70;;
57463;SDS011;43309;44.418;26.122;2022-07-29T02:38:43;8.10;;;7.30;;
57463;SDS011;43309;44.418;26.122;2022-07-29T02:41:20;9.60;;;6.90;;
57463;SDS011;43309;44.418;26.122;2022-07-29T02:43:52;9.50;;;7.10;;
57463;SDS011;43309;44.418;26.122;2022-07-29T02:46:26;8.00;;;6.70;;
57463;SDS011;43309;44.418;26.122;2022-07-29T02:49:16;8.60;;;7.00;;
57463;SDS011;43309;44.418;26.122;2022-07-29T02:52:08;7.70;;;6.40;;
57463;SDS011;43309;44.418;26.122;2022-07-29T02:58:05;8.20;;;6.40;;
57463;SDS011;43309;44.418;26.122;2022-07-29T03:00:29;10.10;;;6.80;;
57463;SDS011;43309;44.418;26.122;2022-07-29T03:02:59;8.80;;;6.50;;
57463;SDS011;43309;44.418;26.122;2022-07-29T03:05:26;7.30;;;6.30;;
57463;SDS011;43309;44.418;26.122;2022-07-29T03:07:58;8.40;;;5.80;;
57463;SDS011;43309;44.418;26.122;2022-07-29T03:10:29;7.20;;;6.40;;
57463;SDS011;43309;44.418;26.122;2022-07-29T03:12:57;8.90;;;6.70;;
57463;SDS011;43309;44.418;26.122;2022-07-29T03:15:25;8.20;;;7.30;;
57463;SDS011;43309;44.418;26.122;2022-07-29T03:17:52;8.20;;;6.70;;
57463;SDS011;43309;44.418;26.122;2022-07-29T03:20:20;8.80;;;6.10;;
57463;SDS011;43309;44.418;26.122;2022-07-29T03:22:47;11.00;;;6.60;;
57463;SDS011;43309;44.418;26.122;2022-07-29T03:25:17;8.00;;;6.30;;
57463;SDS011;43309;44.418;26.122;2022-07-29T03:27:45;8.90;;;6.30;;
57463;SDS011;43309;44.418;26.122;2022-07-29T03:30:14;8.80;;;7.00;;
57463;SDS011;43309;44.418;26.122;2022-07-29T03:32:42;8.90;;;6.70;;
57463;SDS011;43309;44.418;26.122;2022-07-29T03:35:09;9.30;;;6.40;;
57463;SDS011;43309;44.418;26.122;2022-07-29T03:37:36;8.30;;;6.00;;
57463;SDS011;43309;44.418;26.122;2022-07-29T03:40:05;6.50;;;5.90;;
57463;SDS011;43309;44.418;26.122;2022-07-29T03:42:35;10.30;;;6.80;;
57463;SDS011;43309;44.418;26.122;2022-07-29T03:45:08;9.70;;;6.40;;
57463;SDS011;43309;44.418;26.122;2022-07-29T03:47:39;6.90;;;6.00;;
57463;SDS011;43309;44.418;26.122;2022-07-29T03:50:10;8.10;;;6.20;;
57463;SDS011;43309;44.418;26.122;2022-07-29T03:52:38;7.10;;;6.40;;
57463;SDS011;43309;44.418;26.122;2022-07-29T03:55:06;8.40;;;5.90;;
57463;SDS011;43309;44.418;26.122;2022-07-29T03:57:34;8.20;;;6.40;;
57463;SDS011;43309;44.418;26.122;2022-07-29T04:00:03;8.20;;;5.90;;
57463;SDS011;43309;44.418;26.122;2022-07-29T04:02:32;8.10;;;6.20;;
57463;SDS011;43309;44.418;26.122;2022-07-29T04:04:59;9.00;;;6.60;;
57463;SDS011;43309;44.418;26.122;2022-07-29T04:07:26;6.50;;;5.60;;
57463;SDS011;43309;44.418;26.122;2022-07-29T04:09:54;7.20;;;6.40;;
57463;SDS011;43309;44.418;26.122;2022-07-29T04:12:21;6.80;;;5.60;;
57463;SDS011;43309;44.418;26.122;2022-07-29T04:14:48;7.90;;;6.20;;
57463;SDS011;43309;44.418;26.122;2022-07-29T04:17:15;8.70;;;5.90;;
57463;SDS011;43309;44.418;26.122;2022-07-29T04:19:42;9.60;;;6.50;;
57463;SDS011;43309;44.418;26.122;2022-07-29T04:22:09;7.70;;;6.40;;
57463;SDS011;43309;44.418;26.122;2022-07-29T04:24:36;10.70;;;6.20;;
57463;SDS011;43309;44.418;26.122;2022-07-29T04:27:03;8.70;;;6.30;;
57463;SDS011;43309;44.418;26.122;2022-07-29T04:29:30;8.80;;;5.90;;
57463;SDS011;43309;44.418;26.122;2022-07-29T04:31:57;7.50;;;5.90;;
57463;SDS011;43309;44.418;26.122;2022-07-29T04:34:24;8.10;;;6.40;;
57463;SDS011;43309;44.418;26.122;2022-07-29T04:36:52;9.00;;;6.90;;
57463;SDS011;43309;44.418;26.122;2022-07-29T04:39:19;10.30;;;6.40;;
57463;SDS011;43309;44.418;26.122;2022-07-29T04:41:46;9.20;;;7.10;;
57463;SDS011;43309;44.418;26.122;2022-07-29T04:44:13;7.20;;;6.50;;
57463;SDS011;43309;44.418;26.122;2022-07-29T04:46:41;7.00;;;6.30;;
57463;SDS011;43309;44.418;26.122;2022-07-29T04:49:08;12.10;;;7.50;;
57463;SDS011;43309;44.418;26.122;2022-07-29T04:51:35;9.80;;;7.00;;
57463;SDS011;43309;44.418;26.122;2022-07-29T04:54:02;7.70;;;6.40;;
57463;SDS011;43309;44.418;26.122;2022-07-29T04:56:29;9.40;;;6.50;;
57463;SDS011;43309;44.418;26.122;2022-07-29T04:58:56;7.50;;;6.50;;
57463;SDS011;43309;44.418;26.122;2022-07-29T05:01:23;9.40;;;6.70;;
57463;SDS011;43309;44.418;26.122;2022-07-29T05:03:50;11.30;;;6.20;;
57463;SDS011;43309;44.418;26.122;2022-07-29T05:06:18;6.70;;;6.00;;
57463;SDS011;43309;44.418;26.122;2022-07-29T05:08:45;6.60;;;5.90;;
57463;SDS011;43309;44.418;26.122;2022-07-29T05:11:12;11.20;;;5.70;;
57463;SDS011;43309;44.418;26.122;2022-07-29T05:13:39;8.40;;;5.90;;
57463;SDS011;43309;44.418;26.122;2022-07-29T05:16:07;7.50;;;5.90;;
57463;SDS011;43309;44.418;26.122;2022-07-29T05:18:35;7.30;;;6.00;;
57463;SDS011;43309;44.418;26.122;2022-07-29T05:21:02;9.30;;;5.50;;
57463;SDS011;43309;44.418;26.122;2022-07-29T05:23:29;12.70;;;6.10;;
57463;SDS011;43309;44.418;26.122;2022-07-29T05:25:56;6.60;;;5.80;;
57463;SDS011;43309;44.418;26.122;2022-07-29T05:28:23;6.90;;;6.10;;
57463;SDS011;43309;44.418;26.122;2022-07-29T05:30:50;6.80;;;6.10;;
57463;SDS011;43309;44.418;26.122;2022-07-29T05:33:17;7.80;;;6.10;;
57463;SDS011;43309;44.418;26.122;2022-07-29T05:35:44;6.80;;;5.50;;
57463;SDS011;43309;44.418;26.122;2022-07-29T05:38:11;10.50;;;5.60;;
57463;SDS011;43309;44.418;26.122;2022-07-29T05:40:38;10.50;;;5.80;;
57463;SDS011;43309;44.418;26.122;2022-07-29T05:43:05;6.20;;;5.60;;
57463;SDS011;43309;44.418;26.122;2022-07-29T05:45:33;9.20;;;5.70;;
57463;SDS011;43309;44.418;26.122;2022-07-29T05:48:00;7.50;;;5.50;;
57463;SDS011;43309;44.418;26.122;2022-07-29T05:50:27;7.00;;;5.40;;
57463;SDS011;43309;44.418;26.122;2022-07-29T05:52:54;6.70;;;5.20;;
57463;SDS011;43309;44.418;26.122;2022-07-29T05:55:21;9.40;;;5.20;;
57463;SDS011;43309;44.418;26.122;2022-07-29T05:57:48;8.70;;;5.60;;
57463;SDS011;43309;44.418;26.122;2022-07-29T06:00:15;9.90;;;5.40;;
57463;SDS011;43309;44.418;26.122;2022-07-29T06:02:43;6.20;;;4.70;;
57463;SDS011;43309;44.418;26.122;2022-07-29T06:05:10;7.10;;;4.70;;
57463;SDS011;43309;44.418;26.122;2022-07-29T06:07:37;5.30;;;4.60;;
57463;SDS011;43309;44.418;26.122;2022-07-29T06:10:04;6.30;;;4.50;;
57463;SDS011;43309;44.418;26.122;2022-07-29T06:12:32;4.70;;;4.30;;
57463;SDS011;43309;44.418;26.122;2022-07-29T06:14:59;6.20;;;4.70;;
57463;SDS011;43309;44.418;26.122;2022-07-29T06:17:26;5.00;;;4.60;;
57463;SDS011;43309;44.418;26.122;2022-07-29T06:19:53;5.90;;;4.70;;
57463;SDS011;43309;44.418;26.122;2022-07-29T06:22:20;6.60;;;4.00;;
57463;SDS011;43309;44.418;26.122;2022-07-29T06:24:47;10.50;;;4.80;;
57463;SDS011;43309;44.418;26.122;2022-07-29T06:27:15;5.60;;;4.10;;
57463;SDS011;43309;44.418;26.122;2022-07-29T06:29:42;6.20;;;4.10;;
57463;SDS011;43309;44.418;26.122;2022-07-29T06:32:09;5.90;;;4.20;;
57463;SDS011;43309;44.418;26.122;2022-07-29T06:34:37;6.00;;;4.50;;
57463;SDS011;43309;44.418;26.122;2022-07-29T06:37:07;4.80;;;4.30;;
57463;SDS011;43309;44.418;26.122;2022-07-29T06:39:35;4.60;;;4.20;;
57463;SDS011;43309;44.418;26.122;2022-07-29T06:42:03;6.50;;;4.20;;
57463;SDS011;43309;44.418;26.122;2022-07-29T06:44:31;5.00;;;4.20;;
57463;SDS011;43309;44.418;26.122;2022-07-29T06:47:00;5.20;;;4.00;;
57463;SDS011;43309;44.418;26.122;2022-07-29T06:49:28;7.20;;;4.20;;
57463;SDS011;43309;44.418;26.122;2022-07-29T06:51:55;5.40;;;4.20;;
57463;SDS011;43309;44.418;26.122;2022-07-29T06:54:22;6.10;;;4.50;;
57463;SDS011;43309;44.418;26.122;2022-07-29T06:56:49;5.00;;;4.40;;
57463;SDS011;43309;44.418;26.122;2022-07-29T06:59:16;6.40;;;4.20;;
57463;SDS011;43309;44.418;26.122;2022-07-29T07:01:43;4.70;;;3.80;;
57463;SDS011;43309;44.418;26.122;2022-07-29T07:04:11;5.10;;;4.50;;
57463;SDS011;43309;44.418;26.122;2022-07-29T07:06:38;8.20;;;4.00;;
57463;SDS011;43309;44.418;26.122;2022-07-29T07:09:06;8.10;;;4.20;;
57463;SDS011;43309;44.418;26.122;2022-07-29T07:11:33;7.70;;;4.00;;
57463;SDS011;43309;44.418;26.122;2022-07-29T07:14:00;6.80;;;3.80;;
57463;SDS011;43309;44.418;26.122;2022-07-29T07:16:29;4.00;;;3.60;;
57463;SDS011;43309;44.418;26.122;2022-07-29T07:18:56;6.90;;;3.70;;
57463;SDS011;43309;44.418;26.122;2022-07-29T07:21:23;6.30;;;3.40;;
57463;SDS011;43309;44.418;26.122;2022-07-29T07:23:50;4.10;;;3.70;;
57463;SDS011;43309;44.418;26.122;2022-07-29T07:26:17;8.10;;;4.40;;
57463;SDS011;43309;44.418;26.122;2022-07-29T07:28:44;6.00;;;3.40;;
57463;SDS011;43309;44.418;26.122;2022-07-29T07:31:11;4.60;;;3.60;;
57463;SDS011;43309;44.418;26.122;2022-07-29T07:33:38;6.30;;;3.70;;
57463;SDS011;43309;44.418;26.122;2022-07-29T07:36:06;6.70;;;3.30;;
57463;SDS011;43309;44.418;26.122;2022-07-29T07:38:33;4.70;;;3.70;;
57463;SDS011;43309;44.418;26.122;2022-07-29T07:41:00;8.10;;;3.50;;
57463;SDS011;43309;44.418;26.122;2022-07-29T07:43:28;5.00;;;4.10;;
57463;SDS011;43309;44.418;26.122;2022-07-29T07:45:55;4.90;;;3.70;;
57463;SDS011;43309;44.418;26.122;2022-07-29T07:48:22;6.20;;;3.60;;
57463;SDS011;43309;44.418;26.122;2022-07-29T07:50:49;6.40;;;3.50;;
57463;SDS011;43309;44.418;26.122;2022-07-29T07:53:17;6.80;;;3.60;;
57463;SDS011;43309;44.418;26.122;2022-07-29T07:55:44;5.80;;;3.80;;
57463;SDS011;43309;44.418;26.122;2022-07-29T07:58:11;5.70;;;3.20;;
57463;SDS011;43309;44.418;26.122;2022-07-29T08:00:38;4.80;;;3.80;;
57463;SDS011;43309;44.418;26.122;2022-07-29T08:03:05;6.10;;;3.50;;
57463;SDS011;43309;44.418;26.122;2022-07-29T08:05:33;6.20;;;3.90;;
57463;SDS011;43309;44.418;26.122;2022-07-29T08:08:00;4.80;;;3.60;;
57463;SDS011;43309;44.418;26.122;2022-07-29T08:10:27;4.30;;;3.90;;
57463;SDS011;43309;44.418;26.122;2022-07-29T08:13:13;7.10;;;3.50;;
57463;SDS011;43309;44.418;26.122;2022-07-29T08:15:40;5.20;;;3.40;;
57463;SDS011;43309;44.418;26.122;2022-07-29T08:18:12;5.60;;;3.40;;
57463;SDS011;43309;44.418;26.122;2022-07-29T08:20:40;5.60;;;3.50;;
57463;SDS011;43309;44.418;26.122;2022-07-29T08:23:07;8.20;;;3.30;;
57463;SDS011;43309;44.418;26.122;2022-07-29T08:25:37;3.70;;;3.30;;
57463;SDS011;43309;44.418;26.122;2022-07-29T08:28:05;3.70;;;2.60;;
57463;SDS011;43309;44.418;26.122;2022-07-29T08:30:33;4.50;;;2.80;;
57463;SDS011;43309;44.418;26.122;2022-07-29T08:33:00;6.90;;;3.10;;
57463;SDS011;43309;44.418;26.122;2022-07-29T08:35:28;5.50;;;3.20;;
57463;SDS011;43309;44.418;26.122;2022-07-29T08:37:55;5.40;;;3.20;;
57463;SDS011;43309;44.418;26.122;2022-07-29T08:40:23;4.60;;;3.30;;
57463;SDS011;43309;44.418;26.122;2022-07-29T08:42:51;7.20;;;3.80;;
57463;SDS011;43309;44.418;26.122;2022-07-29T08:45:18;6.60;;;3.40;;
57463;SDS011;43309;44.418;26.122;2022-07-29T08:47:45;7.80;;;3.30;;
57463;SDS011;43309;44.418;26.122;2022-07-29T08:50:12;4.70;;;3.20;;
57463;SDS011;43309;44.418;26.122;2022-07-29T08:52:40;7.60;;;3.60;;
57463;SDS011;43309;44.418;26.122;2022-07-29T08:55:09;6.40;;;3.30;;
57463;SDS011;43309;44.418;26.122;2022-07-29T08:57:37;3.70;;;3.20;;
57463;SDS011;43309;44.418;26.122;2022-07-29T09:00:05;8.90;;;3.00;;
57463;SDS011;43309;44.418;26.122;2022-07-29T09:02:35;4.70;;;3.30;;
57463;SDS011;43309;44.418;26.122;2022-07-29T09:05:06;5.50;;;3.50;;
57463;SDS011;43309;44.418;26.122;2022-07-29T09:07:34;7.20;;;3.40;;
57463;SDS011;43309;44.418;26.122;2022-07-29T09:10:02;7.60;;;3.30;;
57463;SDS011;43309;44.418;26.122;2022-07-29T09:12:30;5.10;;;3.20;;
57463;SDS011;43309;44.418;26.122;2022-07-29T09:14:58;4.80;;;3.20;;
57463;SDS011;43309;44.418;26.122;2022-07-29T09:17:41;4.40;;;2.90;;
57463;SDS011;43309;44.418;26.122;2022-07-29T09:20:09;4.90;;;3.10;;
57463;SDS011;43309;44.418;26.122;2022-07-29T09:22:37;4.70;;;3.00;;
57463;SDS011;43309;44.418;26.122;2022-07-29T09:25:05;7.60;;;3.70;;
57463;SDS011;43309;44.418;26.122;2022-07-29T09:27:32;3.60;;;3.10;;
57463;SDS011;43309;44.418;26.122;2022-07-29T09:30:04;4.20;;;3.20;;
57463;SDS011;43309;44.418;26.122;2022-07-29T09:32:33;7.30;;;3.30;;
57463;SDS011;43309;44.418;26.122;2022-07-29T09:35:13;4.50;;;3.40;;
57463;SDS011;43309;44.418;26.122;2022-07-29T09:37:45;4.60;;;3.20;;
57463;SDS011;43309;44.418;26.122;2022-07-29T09:40:13;3.40;;;3.10;;
57463;SDS011;43309;44.418;26.122;2022-07-29T09:45:10;10.00;;;4.10;;
57463;SDS011;43309;44.418;26.122;2022-07-29T09:47:45;5.20;;;4.00;;
57463;SDS011;43309;44.418;26.122;2022-07-29T09:50:15;9.00;;;4.00;;
57463;SDS011;43309;44.418;26.122;2022-07-29T09:52:46;6.30;;;3.40;;
57463;SDS011;43309;44.418;26.122;2022-07-29T09:55:14;3.50;;;3.00;;
57463;SDS011;43309;44.418;26.122;2022-07-29T09:57:42;6.40;;;3.20;;
57463;SDS011;43309;44.418;26.122;2022-07-29T10:00:11;3.20;;;3.00;;
57463;SDS011;43309;44.418;26.122;2022-07-29T10:02:42;8.40;;;3.60;;
57463;SDS011;43309;44.418;26.122;2022-07-29T10:05:21;4.80;;;2.70;;
57463;SDS011;43309;44.418;26.122;2022-07-29T10:07:50;2.90;;;2.60;;
57463;SDS011;43309;44.418;26.122;2022-07-29T10:12:57;7.50;;;3.20;;
57463;SDS011;43309;44.418;26.122;2022-07-29T10:17:55;5.10;;;3.10;;
57463;SDS011;43309;44.418;26.122;2022-07-29T10:20:23;3.20;;;2.80;;
57463;SDS011;43309;44.418;26.122;2022-07-29T10:22:51;5.70;;;3.10;;
57463;SDS011;43309;44.418;26.122;2022-07-29T10:25:19;4.30;;;3.40;;
57463;SDS011;43309;44.418;26.122;2022-07-29T10:27:47;5.60;;;3.10;;
57463;SDS011;43309;44.418;26.122;2022-07-29T10:30:15;7.00;;;3.20;;
57463;SDS011;43309;44.418;26.122;2022-07-29T10:44:09;3.90;;;3.00;;
57463;SDS011;43309;44.418;26.122;2022-07-29T10:46:41;4.80;;;3.20;;
57463;SDS011;43309;44.418;26.122;2022-07-29T10:54:17;5.30;;;3.00;;
57463;SDS011;43309;44.418;26.122;2022-07-29T10:56:45;5.80;;;3.00;;
57463;SDS011;43309;44.418;26.122;2022-07-29T11:01:46;3.20;;;2.90;;
57463;SDS011;43309;44.418;26.122;2022-07-29T11:04:15;5.10;;;2.70;;
57463;SDS011;43309;44.418;26.122;2022-07-29T11:09:25;4.50;;;3.30;;
57463;SDS011;43309;44.418;26.122;2022-07-29T11:11:52;7.00;;;3.00;;
57463;SDS011;43309;44.418;26.122;2022-07-29T11:14:54;3.90;;;3.10;;
57463;SDS011;43309;44.418;26.122;2022-07-29T11:17:18;3.20;;;2.80;;
57463;SDS011;43309;44.418;26.122;2022-07-29T11:19:45;8.30;;;2.90;;
57463;SDS011;43309;44.418;26.122;2022-07-29T11:22:30;7.00;;;2.90;;
57463;SDS011;43309;44.418;26.122;2022-07-29T11:25:18;6.70;;;2.70;;
57463;SDS011;43309;44.418;26.122;2022-07-29T11:27:45;4.30;;;2.90;;
57463;SDS011;43309;44.418;26.122;2022-07-29T11:30:12;3.00;;;2.80;;
57463;SDS011;43309;44.418;26.122;2022-07-29T11:32:40;6.60;;;3.70;;
57463;SDS011;43309;44.418;26.122;2022-07-29T11:43:54;4.60;;;3.10;;
57463;SDS011;43309;44.418;26.122;2022-07-29T11:49:26;3.30;;;2.70;;
57463;SDS011;43309;44.418;26.122;2022-07-29T11:51:54;6.40;;;3.00;;
57463;SDS011;43309;44.418;26.122;2022-07-29T11:54:26;5.50;;;3.00;;
57463;SDS011;43309;44.418;26.122;2022-07-29T11:56:58;5.00;;;2.90;;
57463;SDS011;43309;44.418;26.122;2022-07-29T11:59:26;4.20;;;2.70;;
57463;SDS011;43309;44.418;26.122;2022-07-29T12:01:54;4.10;;;2.70;;
57463;SDS011;43309;44.418;26.122;2022-07-29T12:04:22;6.00;;;3.30;;
57463;SDS011;43309;44.418;26.122;2022-07-29T12:06:50;4.60;;;2.80;;
57463;SDS011;43309;44.418;26.122;2022-07-29T12:09:18;5.20;;;2.80;;
57463;SDS011;43309;44.418;26.122;2022-07-29T12:11:46;4.50;;;2.50;;
57463;SDS011;43309;44.418;26.122;2022-07-29T12:14:26;2.60;;;2.40;;
57463;SDS011;43309;44.418;26.122;2022-07-29T12:16:57;4.40;;;2.70;;
57463;SDS011;43309;44.418;26.122;2022-07-29T12:19:27;6.40;;;3.30;;
57463;SDS011;43309;44.418;26.122;2022-07-29T12:21:55;3.80;;;2.70;;
57463;SDS011;43309;44.418;26.122;2022-07-29T12:24:25;7.90;;;3.20;;
57463;SDS011;43309;44.418;26.122;2022-07-29T12:26:54;3.10;;;2.70;;
57463;SDS011;43309;44.418;26.122;2022-07-29T12:29:23;6.00;;;3.30;;
57463;SDS011;43309;44.418;26.122;2022-07-29T12:31:51;3.50;;;2.80;;
57463;SDS011;43309;44.418;26.122;2022-07-29T12:34:22;3.60;;;3.00;;
57463;SDS011;43309;44.418;26.122;2022-07-29T12:36:50;3.50;;;3.10;;
57463;SDS011;43309;44.418;26.122;2022-07-29T12:39:17;3.60;;;2.80;;
57463;SDS011;43309;44.418;26.122;2022-07-29T12:41:44;5.90;;;2.90;;
57463;SDS011;43309;44.418;26.122;2022-07-29T12:44:11;5.10;;;3.00;;
57463;SDS011;43309;44.418;26.122;2022-07-29T12:46:39;4.90;;;2.90;;
57463;SDS011;43309;44.418;26.122;2022-07-29T12:49:06;4.50;;;2.70;;
57463;SDS011;43309;44.418;26.122;2022-07-29T12:51:34;4.90;;;3.40;;
57463;SDS011;43309;44.418;26.122;2022-07-29T12:54:07;4.10;;;2.80;;
57463;SDS011;43309;44.418;26.122;2022-07-29T12:56:38;5.00;;;3.20;;
57463;SDS011;43309;44.418;26.122;2022-07-29T12:59:17;2.80;;;2.60;;
57463;SDS011;43309;44.418;26.122;2022-07-29T13:01:44;6.50;;;3.00;;
57463;SDS011;43309;44.418;26.122;2022-07-29T13:04:26;3.40;;;2.90;;
57463;SDS011;43309;44.418;26.122;2022-07-29T13:07:01;3.50;;;3.20;;
57463;SDS011;43309;44.418;26.122;2022-07-29T13:09:37;4.60;;;3.00;;
57463;SDS011;43309;44.418;26.122;2022-07-29T13:12:08;3.80;;;3.00;;
57463;SDS011;43309;44.418;26.122;2022-07-29T13:14:40;4.40;;;2.80;;
57463;SDS011;43309;44.418;26.122;2022-07-29T13:17:10;3.30;;;2.90;;
57463;SDS011;43309;44.418;26.122;2022-07-29T13:22:12;5.70;;;3.20;;
57463;SDS011;43309;44.418;26.122;2022-07-29T13:24:59;7.10;;;4.00;;
57463;SDS011;43309;44.418;26.122;2022-07-29T13:27:33;7.00;;;3.30;;
57463;SDS011;43309;44.418;26.122;2022-07-29T13:30:04;4.20;;;3.10;;
57463;SDS011;43309;44.418;26.122;2022-07-29T13:35:05;3.20;;;2.80;;
57463;SDS011;43309;44.418;26.122;2022-07-29T13:37:34;5.10;;;2.80;;
57463;SDS011;43309;44.418;26.122;2022-07-29T13:40:05;4.00;;;3.60;;
57463;SDS011;43309;44.418;26.122;2022-07-29T13:42:34;3.40;;;3.10;;
57463;SDS011;43309;44.418;26.122;2022-07-29T13:45:01;7.30;;;3.10;;
57463;SDS011;43309;44.418;26.122;2022-07-29T13:47:29;5.10;;;2.80;;
57463;SDS011;43309;44.418;26.122;2022-07-29T13:49:56;5.70;;;3.40;;
57463;SDS011;43309;44.418;26.122;2022-07-29T13:52:23;4.10;;;2.90;;
57463;SDS011;43309;44.418;26.122;2022-07-29T13:54:51;3.30;;;3.00;;
57463;SDS011;43309;44.418;26.122;2022-07-29T13:57:18;3.80;;;2.90;;
57463;SDS011;43309;44.418;26.122;2022-07-29T13:59:45;3.70;;;2.90;;
57463;SDS011;43309;44.418;26.122;2022-07-29T14:02:12;3.30;;;2.70;;
57463;SDS011;43309;44.418;26.122;2022-07-29T14:04:40;3.30;;;3.10;;
57463;SDS011;43309;44.418;26.122;2022-07-29T14:07:07;6.00;;;3.30;;
57463;SDS011;43309;44.418;26.122;2022-07-29T14:09:34;3.50;;;3.00;;
57463;SDS011;43309;44.418;26.122;2022-07-29T14:12:01;3.10;;;2.80;;
57463;SDS011;43309;44.418;26.122;2022-07-29T14:14:29;5.20;;;2.90;;
57463;SDS011;43309;44.418;26.122;2022-07-29T14:16:58;4.60;;;2.60;;
57463;SDS011;43309;44.418;26.122;2022-07-29T14:19:25;6.20;;;3.10;;
57463;SDS011;43309;44.418;26.122;2022-07-29T14:21:52;4.00;;;3.00;;
57463;SDS011;43309;44.418;26.122;2022-07-29T14:24:19;3.50;;;3.20;;
57463;SDS011;43309;44.418;26.122;2022-07-29T14:26:46;5.30;;;3.40;;
57463;SDS011;43309;44.418;26.122;2022-07-29T14:29:14;4.80;;;3.00;;
57463;SDS011;43309;44.418;26.122;2022-07-29T14:31:41;5.70;;;3.00;;
57463;SDS011;43309;44.418;26.122;2022-07-29T14:34:10;3.70;;;2.90;;
57463;SDS011;43309;44.418;26.122;2022-07-29T14:36:37;4.90;;;3.40;;
57463;SDS011;43309;44.418;26.122;2022-07-29T14:39:04;4.70;;;3.40;;
57463;SDS011;43309;44.418;26.122;2022-07-29T14:41:31;5.50;;;3.10;;
57463;SDS011;43309;44.418;26.122;2022-07-29T14:43:59;4.40;;;3.00;;
57463;SDS011;43309;44.418;26.122;2022-07-29T14:46:27;4.70;;;2.90;;
57463;SDS011;43309;44.418;26.122;2022-07-29T14:48:55;4.80;;;3.20;;
57463;SDS011;43309;44.418;26.122;2022-07-29T14:51:22;4.60;;;3.10;;
57463;SDS011;43309;44.418;26.122;2022-07-29T14:53:49;3.10;;;2.90;;
57463;SDS011;43309;44.418;26.122;2022-07-29T14:56:16;4.40;;;2.90;;
57463;SDS011;43309;44.418;26.122;2022-07-29T14:58:44;7.50;;;3.10;;
57463;SDS011;43309;44.418;26.122;2022-07-29T15:01:11;4.10;;;3.70;;
57463;SDS011;43309;44.418;26.122;2022-07-29T15:03:38;3.20;;;2.90;;
57463;SDS011;43309;44.418;26.122;2022-07-29T15:06:05;3.70;;;3.00;;
57463;SDS011;43309;44.418;26.122;2022-07-29T15:08:32;5.50;;;3.30;;
57463;SDS011;43309;44.418;26.122;2022-07-29T15:10:59;3.80;;;3.30;;
57463;SDS011;43309;44.418;26.122;2022-07-29T15:13:27;5.00;;;3.60;;
57463;SDS011;43309;44.418;26.122;2022-07-29T15:15:54;4.70;;;3.00;;
57463;SDS011;43309;44.418;26.122;2022-07-29T15:18:21;7.00;;;3.60;;
57463;SDS011;43309;44.418;26.122;2022-07-29T15:20:48;3.60;;;3.20;;
57463;SDS011;43309;44.418;26.122;2022-07-29T15:23:15;5.80;;;3.10;;
57463;SDS011;43309;44.418;26.122;2022-07-29T15:25:42;4.10;;;3.20;;
57463;SDS011;43309;44.418;26.122;2022-07-29T15:28:10;5.80;;;3.00;;
57463;SDS011;43309;44.418;26.122;2022-07-29T15:30:37;5.10;;;3.20;;
57463;SDS011;43309;44.418;26.122;2022-07-29T15:33:07;3.60;;;2.80;;
57463;SDS011;43309;44.418;26.122;2022-07-29T15:35:36;3.90;;;3.60;;
57463;SDS011;43309;44.418;26.122;2022-07-29T15:38:04;3.70;;;3.30;;
57463;SDS011;43309;44.418;26.122;2022-07-29T15:40:31;6.20;;;3.20;;
57463;SDS011;43309;44.418;26.122;2022-07-29T15:42:58;3.20;;;2.90;;
57463;SDS011;43309;44.418;26.122;2022-07-29T15:45:38;4.00;;;2.70;;
57463;SDS011;43309;44.418;26.122;2022-07-29T15:48:07;4.60;;;3.00;;
57463;SDS011;43309;44.418;26.122;2022-07-29T15:50:35;3.50;;;2.80;;
57463;SDS011;43309;44.418;26.122;2022-07-29T15:53:02;3.30;;;3.00;;
57463;SDS011;43309;44.418;26.122;2022-07-29T15:55:30;6.00;;;3.10;;